DLH161A EDXW-EDDF
Flight info
| Callsign | DLH161A |
|---|---|
| Flight time | 1h 1m |
| Altitude | 38000 |
| Route | OLDIP1B OLDIP DCT BADOS DCT OMWEG Y348 ELSOB DCT RIMET/N0411F310 T157 KOKEB/N0362F230 T157 KERAX KERAX5A |
| Aircraft | A319/M-SDE2E3FGIJ1LORWXYZ/HB1 |
Departure
| Time | 2026-05-04 09:25 |
|---|---|
| Airport | Westerland Sylt Airport (EDXW) |
Arrival
| Time | 2026-05-04 10:26 |
|---|---|
| Airport | Frankfurt Main Airport (EDDF) |
| Time | Latitude | Longitude | Altitude | Speed | Heading |
|---|---|---|---|---|---|
| 2026-05-04 07:57 | 54.91352 | 8.33122 | 39 ft | 0 kts | 269° |
| 2026-05-04 09:09 | 54.91352 | 8.33131 | 39 ft | 2 kts | 270° |
| 2026-05-04 09:09 | 54.91352 | 8.33150 | 39 ft | 0 kts | 269° |
| 2026-05-04 09:10 | 54.91355 | 8.33170 | 39 ft | 2 kts | 226° |
| 2026-05-04 09:10 | 54.91364 | 8.33180 | 39 ft | 0 kts | 185° |
| 2026-05-04 09:10 | 54.91371 | 8.33179 | 39 ft | 1 kts | 178° |
| 2026-05-04 09:10 | 54.91373 | 8.33179 | 39 ft | 0 kts | 179° |
| 2026-05-04 09:14 | 54.91365 | 8.33179 | 39 ft | 3 kts | 179° |
| 2026-05-04 09:14 | 54.91325 | 8.33180 | 39 ft | 7 kts | 179° |
| 2026-05-04 09:15 | 54.91255 | 8.33180 | 39 ft | 12 kts | 180° |
| 2026-05-04 09:15 | 54.91159 | 8.33179 | 38 ft | 15 kts | 180° |
| 2026-05-04 09:15 | 54.91044 | 8.33165 | 38 ft | 17 kts | 194° |
| 2026-05-04 09:15 | 54.90930 | 8.33127 | 37 ft | 17 kts | 152° |
| 2026-05-04 09:17 | 54.90251 | 8.34282 | 39 ft | 20 kts | 77° |
| 2026-05-04 09:18 | 54.90276 | 8.34522 | 42 ft | 19 kts | 80° |
| 2026-05-04 09:18 | 54.90298 | 8.34747 | 46 ft | 18 kts | 80° |
| 2026-05-04 09:18 | 54.90319 | 8.34948 | 51 ft | 15 kts | 80° |
| 2026-05-04 09:18 | 54.90333 | 8.35051 | 53 ft | 1 kts | 68° |
| 2026-05-04 09:19 | 54.90334 | 8.35056 | 53 ft | 0 kts | 66° |
| 2026-05-04 09:22 | 54.90339 | 8.35070 | 53 ft | 2 kts | 59° |
| 2026-05-04 09:22 | 54.90369 | 8.35145 | 53 ft | 11 kts | 47° |
| 2026-05-04 09:23 | 54.90447 | 8.35136 | 51 ft | 14 kts | 323° |
| 2026-05-04 09:23 | 54.90566 | 8.34993 | 46 ft | 34 kts | 325° |
| 2026-05-04 09:23 | 54.90996 | 8.34458 | 43 ft | 114 kts | 323° |
| 2026-05-04 09:23 | 54.91796 | 8.33462 | 250 ft | 157 kts | 323° |
| 2026-05-04 09:25 | 54.98349 | 8.23357 | 2494 ft | 203 kts | 271° |
| 2026-05-04 09:25 | 54.97961 | 8.21016 | 3358 ft | 212 kts | 240° |
| 2026-05-04 09:26 | 54.97121 | 8.19011 | 4552 ft | 207 kts | 238° |
| 2026-05-04 09:26 | 54.96304 | 8.17005 | 5572 ft | 208 kts | 238° |
| 2026-05-04 09:26 | 54.95479 | 8.14982 | 6554 ft | 210 kts | 236° |
| 2026-05-04 09:26 | 54.94389 | 8.13357 | 7474 ft | 219 kts | 207° |
| 2026-05-04 09:27 | 54.92868 | 8.12922 | 8401 ft | 232 kts | 178° |
| 2026-05-04 09:27 | 54.91319 | 8.13943 | 9046 ft | 258 kts | 148° |
| 2026-05-04 09:27 | 54.89895 | 8.15973 | 9649 ft | 277 kts | 143° |
| 2026-05-04 09:27 | 54.88388 | 8.18182 | 10228 ft | 295 kts | 144° |
| 2026-05-04 09:28 | 54.86779 | 8.20511 | 11002 ft | 304 kts | 144° |
| 2026-05-04 09:28 | 54.85157 | 8.22836 | 11888 ft | 309 kts | 145° |
| 2026-05-04 09:28 | 54.83490 | 8.25204 | 12762 ft | 313 kts | 146° |
| 2026-05-04 09:28 | 54.81764 | 8.27410 | 13573 ft | 316 kts | 151° |
| 2026-05-04 09:29 | 54.79903 | 8.29484 | 14398 ft | 320 kts | 153° |
| 2026-05-04 09:29 | 54.78022 | 8.31532 | 15193 ft | 323 kts | 153° |
| 2026-05-04 09:29 | 54.76131 | 8.33585 | 16016 ft | 326 kts | 153° |
| 2026-05-04 09:29 | 54.74198 | 8.35686 | 16820 ft | 329 kts | 153° |
| 2026-05-04 09:30 | 54.72264 | 8.37790 | 17592 ft | 333 kts | 153° |
| 2026-05-04 09:30 | 54.70309 | 8.39932 | 18349 ft | 337 kts | 150° |
| 2026-05-04 09:30 | 54.68568 | 8.42644 | 19069 ft | 349 kts | 133° |
| 2026-05-04 09:30 | 54.67318 | 8.46258 | 19800 ft | 359 kts | 117° |
| 2026-05-04 09:31 | 54.66369 | 8.50290 | 20506 ft | 364 kts | 114° |
| 2026-05-04 09:31 | 54.65474 | 8.54328 | 21169 ft | 368 kts | 114° |
| 2026-05-04 09:31 | 54.64541 | 8.58460 | 21800 ft | 373 kts | 115° |
| 2026-05-04 09:31 | 54.63571 | 8.62637 | 22479 ft | 376 kts | 116° |
| 2026-05-04 09:32 | 54.62581 | 8.66778 | 23159 ft | 377 kts | 120° |
| 2026-05-04 09:32 | 54.61301 | 8.70715 | 23798 ft | 374 kts | 130° |
| 2026-05-04 09:34 | 54.47949 | 8.94510 | 26896 ft | 415 kts | 141° |
| 2026-05-04 09:34 | 54.45922 | 8.98041 | 27392 ft | 418 kts | 141° |
| 2026-05-04 09:34 | 54.43862 | 9.01621 | 27876 ft | 421 kts | 141° |
| 2026-05-04 09:34 | 54.41801 | 9.05195 | 28324 ft | 425 kts | 142° |
| 2026-05-04 09:35 | 54.39708 | 9.08777 | 28768 ft | 427 kts | 143° |
| 2026-05-04 09:35 | 54.37513 | 9.12105 | 29223 ft | 426 kts | 148° |
| 2026-05-04 09:35 | 54.35160 | 9.15148 | 29659 ft | 424 kts | 153° |
| 2026-05-04 09:35 | 54.32680 | 9.17864 | 30077 ft | 423 kts | 157° |
| 2026-05-04 09:37 | 54.14702 | 9.35689 | 33148 ft | 424 kts | 157° |
| 2026-05-04 09:37 | 54.12163 | 9.38199 | 33651 ft | 421 kts | 157° |
| 2026-05-04 09:38 | 54.09647 | 9.40683 | 34120 ft | 419 kts | 157° |
| 2026-05-04 09:38 | 54.07155 | 9.43127 | 34590 ft | 415 kts | 158° |
| 2026-05-04 09:38 | 54.04610 | 9.45344 | 34960 ft | 410 kts | 162° |
| 2026-05-04 09:38 | 54.02014 | 9.47247 | 35238 ft | 406 kts | 165° |
| 2026-05-04 09:39 | 53.99372 | 9.48845 | 35451 ft | 405 kts | 168° |
| 2026-05-04 09:39 | 53.96674 | 9.50147 | 35632 ft | 404 kts | 172° |
| 2026-05-04 09:39 | 53.93964 | 9.51139 | 35856 ft | 401 kts | 175° |
| 2026-05-04 09:39 | 53.91215 | 9.51848 | 36044 ft | 401 kts | 178° |
| 2026-05-04 09:40 | 53.88440 | 9.52496 | 36221 ft | 403 kts | 177° |
| 2026-05-04 09:40 | 53.85659 | 9.53150 | 36454 ft | 405 kts | 177° |
| 2026-05-04 09:40 | 53.82904 | 9.53798 | 36657 ft | 408 kts | 177° |
| 2026-05-04 09:40 | 53.80079 | 9.54464 | 36863 ft | 410 kts | 177° |
| 2026-05-04 09:41 | 53.77264 | 9.55126 | 37062 ft | 412 kts | 177° |
| 2026-05-04 09:42 | 53.57178 | 9.60226 | 37978 ft | 424 kts | 174° |
| 2026-05-04 09:43 | 53.51395 | 9.61928 | 37978 ft | 423 kts | 174° |
| 2026-05-04 09:43 | 53.45613 | 9.63611 | 37985 ft | 424 kts | 174° |
| 2026-05-04 09:44 | 53.39782 | 9.65297 | 37975 ft | 425 kts | 175° |
| 2026-05-04 09:46 | 53.16628 | 9.71924 | 37973 ft | 423 kts | 175° |
| 2026-05-04 09:46 | 53.10862 | 9.73563 | 37974 ft | 423 kts | 175° |
| 2026-05-04 09:47 | 53.05052 | 9.75209 | 37974 ft | 424 kts | 175° |
| 2026-05-04 09:49 | 52.81905 | 9.81727 | 37988 ft | 422 kts | 175° |
| 2026-05-04 09:51 | 52.61785 | 9.87334 | 38000 ft | 420 kts | 175° |
| 2026-05-04 09:51 | 52.56061 | 9.88918 | 37982 ft | 420 kts | 175° |
| 2026-05-04 09:52 | 52.50327 | 9.90503 | 38007 ft | 419 kts | 175° |
| 2026-05-04 09:52 | 52.44579 | 9.92086 | 37994 ft | 418 kts | 175° |
| 2026-05-04 09:53 | 52.38879 | 9.93653 | 37989 ft | 418 kts | 175° |
| 2026-05-04 09:53 | 52.33144 | 9.95223 | 37991 ft | 417 kts | 175° |
| 2026-05-04 09:54 | 52.27479 | 9.96772 | 37999 ft | 417 kts | 175° |
| 2026-05-04 09:54 | 52.21753 | 9.98335 | 37978 ft | 416 kts | 175° |
| 2026-05-04 09:55 | 52.16076 | 9.99880 | 37980 ft | 416 kts | 176° |
| 2026-05-04 09:55 | 52.10407 | 10.01416 | 37990 ft | 416 kts | 175° |
| 2026-05-04 09:56 | 52.04732 | 10.02952 | 37971 ft | 415 kts | 175° |
| 2026-05-04 09:56 | 51.99047 | 10.04487 | 37980 ft | 414 kts | 176° |
| 2026-05-04 09:57 | 51.93378 | 10.06013 | 37972 ft | 413 kts | 176° |
| 2026-05-04 09:57 | 51.87733 | 10.07527 | 37975 ft | 413 kts | 176° |
| 2026-05-04 09:58 | 51.82088 | 10.09038 | 37977 ft | 413 kts | 175° |
| 2026-05-04 09:58 | 51.76435 | 10.10548 | 37978 ft | 413 kts | 175° |
| 2026-05-04 10:00 | 51.57223 | 10.06979 | 34855 ft | 407 kts | 200° |
| 2026-05-04 10:00 | 51.54523 | 10.05739 | 34169 ft | 407 kts | 199° |
| 2026-05-04 10:02 | 51.35424 | 9.97081 | 28878 ft | 403 kts | 199° |
| 2026-05-04 10:04 | 51.17168 | 9.88900 | 24638 ft | 374 kts | 199° |
| 2026-05-04 10:04 | 51.14708 | 9.87803 | 24154 ft | 368 kts | 199° |
| 2026-05-04 10:04 | 51.12263 | 9.86713 | 23688 ft | 363 kts | 199° |
| 2026-05-04 10:04 | 51.09825 | 9.85627 | 23222 ft | 359 kts | 199° |
| 2026-05-04 10:05 | 51.07447 | 9.84568 | 22776 ft | 355 kts | 199° |
| 2026-05-04 10:05 | 51.05096 | 9.83523 | 22339 ft | 351 kts | 199° |
| 2026-05-04 10:05 | 51.02752 | 9.82481 | 21891 ft | 348 kts | 199° |
| 2026-05-04 10:05 | 51.00440 | 9.81456 | 21447 ft | 345 kts | 198° |
| 2026-05-04 10:06 | 50.98158 | 9.80443 | 21009 ft | 342 kts | 198° |
| 2026-05-04 10:06 | 50.95889 | 9.79438 | 20570 ft | 340 kts | 198° |
| 2026-05-04 10:06 | 50.93629 | 9.78437 | 20141 ft | 337 kts | 198° |
| 2026-05-04 10:08 | 50.80323 | 9.72578 | 17561 ft | 326 kts | 198° |
| 2026-05-04 10:08 | 50.78140 | 9.71620 | 17120 ft | 325 kts | 197° |
| 2026-05-04 10:08 | 50.75983 | 9.70674 | 16686 ft | 324 kts | 198° |
| 2026-05-04 10:08 | 50.73820 | 9.69726 | 16250 ft | 324 kts | 198° |
| 2026-05-04 10:09 | 50.71670 | 9.68786 | 15817 ft | 323 kts | 198° |
| 2026-05-04 10:09 | 50.69483 | 9.67829 | 15377 ft | 322 kts | 198° |
| 2026-05-04 10:09 | 50.67339 | 9.66893 | 14943 ft | 321 kts | 198° |
| 2026-05-04 10:09 | 50.65212 | 9.65965 | 14518 ft | 320 kts | 198° |
| 2026-05-04 10:10 | 50.63073 | 9.65032 | 14087 ft | 319 kts | 198° |
| 2026-05-04 10:10 | 50.60923 | 9.64094 | 13655 ft | 318 kts | 198° |
| 2026-05-04 10:10 | 50.58823 | 9.63180 | 13230 ft | 316 kts | 198° |
| 2026-05-04 10:10 | 50.56697 | 9.62256 | 12801 ft | 315 kts | 197° |
| 2026-05-04 10:11 | 50.54605 | 9.61348 | 12378 ft | 313 kts | 197° |
| 2026-05-04 10:11 | 50.52527 | 9.60447 | 11960 ft | 311 kts | 198° |
| 2026-05-04 10:11 | 50.50441 | 9.59546 | 11539 ft | 309 kts | 197° |
| 2026-05-04 10:11 | 50.48402 | 9.58673 | 11138 ft | 304 kts | 197° |
| 2026-05-04 10:12 | 50.46388 | 9.57815 | 10766 ft | 293 kts | 197° |
| 2026-05-04 10:12 | 50.44465 | 9.56998 | 10395 ft | 282 kts | 197° |
| 2026-05-04 10:12 | 50.42593 | 9.56202 | 10026 ft | 280 kts | 197° |
| 2026-05-04 10:12 | 50.40669 | 9.55378 | 9646 ft | 279 kts | 197° |
| 2026-05-04 10:13 | 50.38837 | 9.54590 | 9281 ft | 278 kts | 197° |
| 2026-05-04 10:13 | 50.36992 | 9.53794 | 8907 ft | 277 kts | 197° |
| 2026-05-04 10:13 | 50.35142 | 9.52989 | 8536 ft | 276 kts | 197° |
| 2026-05-04 10:13 | 50.33295 | 9.52179 | 8166 ft | 275 kts | 197° |
| 2026-05-04 10:14 | 50.31452 | 9.51368 | 7991 ft | 273 kts | 197° |
| 2026-05-04 10:14 | 50.29633 | 9.50565 | 7987 ft | 274 kts | 197° |
| 2026-05-04 10:16 | 50.22707 | 9.35270 | 7135 ft | 253 kts | 254° |
| 2026-05-04 10:16 | 50.22248 | 9.32689 | 6958 ft | 245 kts | 253° |
| 2026-05-04 10:16 | 50.21795 | 9.30149 | 6776 ft | 238 kts | 253° |
| 2026-05-04 10:16 | 50.21358 | 9.27697 | 6599 ft | 234 kts | 253° |
| 2026-05-04 10:17 | 50.21039 | 9.25906 | 6473 ft | 234 kts | 253° |
| 2026-05-04 10:17 | 50.20835 | 9.24770 | 6391 ft | 234 kts | 253° |
| 2026-05-04 10:19 | 50.15644 | 9.07299 | 5057 ft | 231 kts | 251° |
| 2026-05-04 10:19 | 50.15149 | 9.04953 | 4879 ft | 227 kts | 250° |
| 2026-05-04 10:19 | 50.14636 | 9.02661 | 4704 ft | 221 kts | 249° |
| 2026-05-04 10:19 | 50.14115 | 9.00427 | 4528 ft | 216 kts | 249° |
| 2026-05-04 10:20 | 50.13604 | 8.98284 | 4384 ft | 206 kts | 249° |
| 2026-05-04 10:20 | 50.13107 | 8.96253 | 4239 ft | 196 kts | 248° |
| 2026-05-04 10:20 | 50.12629 | 8.94300 | 4110 ft | 189 kts | 248° |
| 2026-05-04 10:20 | 50.12169 | 8.92426 | 3978 ft | 182 kts | 248° |
| 2026-05-04 10:21 | 50.11726 | 8.90621 | 3939 ft | 176 kts | 248° |
| 2026-05-04 10:21 | 50.11293 | 8.88859 | 3937 ft | 176 kts | 248° |
| 2026-05-04 10:21 | 50.10855 | 8.87073 | 3936 ft | 176 kts | 248° |
| 2026-05-04 10:21 | 50.10422 | 8.85304 | 3797 ft | 176 kts | 248° |
| 2026-05-04 10:22 | 50.09555 | 8.81740 | 3342 ft | 175 kts | 248° |
| 2026-05-04 10:22 | 50.09128 | 8.79977 | 3116 ft | 175 kts | 248° |
| 2026-05-04 10:22 | 50.08697 | 8.78194 | 2908 ft | 172 kts | 249° |
| 2026-05-04 10:23 | 50.08277 | 8.76449 | 2734 ft | 173 kts | 249° |
| 2026-05-04 10:23 | 50.07859 | 8.74715 | 2487 ft | 172 kts | 249° |
| 2026-05-04 10:25 | 50.05798 | 8.64088 | 1057 ft | 127 kts | 250° |
| 2026-05-04 10:25 | 50.05499 | 8.62804 | 900 ft | 127 kts | 249° |
| 2026-05-04 10:25 | 50.05188 | 8.61521 | 752 ft | 127 kts | 249° |
| 2026-05-04 10:25 | 50.04879 | 8.60251 | 585 ft | 126 kts | 249° |
| 2026-05-04 10:26 | 50.04577 | 8.58975 | 422 ft | 124 kts | 250° |
| 2026-05-04 10:26 | 50.04292 | 8.57769 | 354 ft | 101 kts | 250° |
| 2026-05-04 10:26 | 50.04103 | 8.56977 | 353 ft | 61 kts | 250° |
| 2026-05-04 10:26 | 50.03992 | 8.56470 | 353 ft | 34 kts | 267° |
| 2026-05-04 10:27 | 50.04005 | 8.56226 | 353 ft | 2 kts | 281° |
| 2026-05-04 10:27 | 50.04010 | 8.56188 | 353 ft | 4 kts | 283° |
| 2026-05-04 10:27 | 50.04018 | 8.56131 | 353 ft | 6 kts | 282° |
| 2026-05-04 10:27 | 50.04022 | 8.56108 | 353 ft | 0 kts | 281° |
| 2026-05-04 10:28 | 50.04022 | 8.56107 | 353 ft | 0 kts | 281° |
| 2026-05-04 10:28 | 50.04022 | 8.56105 | 353 ft | 1 kts | 283° |
| 2026-05-04 10:28 | 50.04051 | 8.56078 | 353 ft | 9 kts | 10° |
| 2026-05-04 10:28 | 50.04109 | 8.56200 | 353 ft | 17 kts | 70° |
| 2026-05-04 10:29 | 50.04153 | 8.56381 | 353 ft | 18 kts | 70° |
| 2026-05-04 10:29 | 50.04197 | 8.56570 | 353 ft | 18 kts | 71° |
| 2026-05-04 10:29 | 50.04246 | 8.56760 | 353 ft | 19 kts | 60° |
| 2026-05-04 10:29 | 50.04364 | 8.56829 | 353 ft | 18 kts | 7° |
| 2026-05-04 10:30 | 50.04492 | 8.56868 | 353 ft | 19 kts | 13° |
| 2026-05-04 10:30 | 50.04625 | 8.56917 | 353 ft | 19 kts | 17° |
| 2026-05-04 10:30 | 50.04681 | 8.56918 | 353 ft | 5 kts | 306° |
| 2026-05-04 10:30 | 50.04700 | 8.56862 | 353 ft | 2 kts | 296° |
| 2026-05-04 10:31 | 50.04703 | 8.56852 | 354 ft | 1 kts | 294° |
| 2026-05-04 10:31 | 50.04704 | 8.56848 | 354 ft | 0 kts | 294° |